Randolph, Alabama
Current Conditions -  °F | °C
As of 4:53 PM on Wednesday 22 Oct 2014 (Local Time) from KEET Reporting Station
Clear Clear  
Wind Chill: 69°   Ceiling: Unl
Heat Index: 69°   Visibility: 10mi
Dew Point: 41°   Wind: 7mph
Humidity: 36%   Direction: 350°N
Pressure: 30.09"   Gusts: NA
Location:  32.9°N, 86.91°W
Report Text: KEET 222153Z AUTO 35006KT 10SM CLR 21/05 A3009 RMK AO2 SLP185 T02060050
Loading
Personal Weather Stations






























Interactive Weather Map New forecast layout! Learn more

10-Day Weather Forecast

Advertisements
Track Severe Weather on mobile